Time;durP1;ratioP1;P1;durP2;ratioP2;P2;SDS_P1;SDS_P2;PMS_P1;PMS_P2;Temp;Humidity;BMP_temperature;BMP_pressure;BME280_temperature;BME280_humidity;BME280_pressure;Samples;Min_cycle;Max_cycle;Signal;HPM_P1;HPM_P2
2022/03/05 00:00:34;;;;;;;35.40;18.88;;;6.50;46.20;;;;;;4955932;28;20109;-77
2022/03/05 00:03:00;;;;;;;37.72;19.55;;;6.50;46.20;;;;;;4956614;28;20032;-76
2022/03/05 00:05:27;;;;;;;35.88;18.58;;;6.40;46.20;;;;;;4956588;28;20034;-77
2022/03/05 00:07:53;;;;;;;38.67;18.95;;;6.40;46.20;;;;;;4956558;28;20027;-74
2022/03/05 00:10:19;;;;;;;35.33;18.45;;;6.40;46.20;;;;;;4971445;28;20019;-76
2022/03/05 00:12:45;;;;;;;30.50;16.80;;;6.40;46.20;;;;;;4956079;28;20027;-75
2022/03/05 00:15:11;;;;;;;30.50;16.58;;;6.30;46.20;;;;;;4956284;28;20059;-75
2022/03/05 00:17:37;;;;;;;34.95;17.58;;;6.30;46.20;;;;;;4956123;28;20031;-75
2022/03/05 00:20:05;;;;;;;33.95;17.65;;;6.30;46.30;;;;;;4956432;28;20548;-78
2022/03/05 00:22:31;;;;;;;30.63;18.23;;;6.20;46.30;;;;;;4954814;28;20031;-76
2022/03/05 00:24:57;;;;;;;33.17;18.35;;;6.20;46.50;;;;;;4955868;28;20556;-72
2022/03/05 00:27:23;;;;;;;33.22;18.83;;;6.30;46.50;;;;;;4939620;28;20061;-73
2022/03/05 00:29:49;;;;;;;35.03;18.95;;;6.20;46.60;;;;;;4956060;28;20427;-75
2022/03/05 00:32:15;;;;;;;31.42;18.00;;;6.20;46.60;;;;;;4971148;28;20023;-76
2022/03/05 00:34:41;;;;;;;30.48;16.00;;;6.20;46.60;;;;;;4943195;28;20111;-75
2022/03/05 00:37:08;;;;;;;32.30;17.65;;;6.20;46.40;;;;;;4936824;29;20032;-77
2022/03/05 00:39:34;;;;;;;31.52;17.05;;;6.20;46.40;;;;;;4936800;29;20028;-73
2022/03/05 00:42:00;;;;;;;35.25;18.52;;;6.20;46.60;;;;;;4936819;29;20035;-72
2022/03/05 00:44:26;;;;;;;35.22;17.27;;;6.20;46.70;;;;;;4936665;29;20496;-73
2022/03/05 00:46:51;;;;;;;33.85;17.33;;;6.20;46.70;;;;;;4949960;28;20066;-75
2022/03/05 00:49:17;;;;;;;28.90;15.65;;;6.20;46.60;;;;;;4955635;28;20485;-76
2022/03/05 00:51:43;;;;;;;32.30;18.25;;;6.30;46.50;;;;;;4955715;28;20027;-77
2022/03/05 00:54:09;;;;;;;33.65;17.52;;;6.30;46.60;;;;;;4955439;28;20031;-71
2022/03/05 00:56:35;;;;;;;32.83;16.58;;;6.20;46.60;;;;;;4955612;28;20027;-74
2022/03/05 00:59:01;;;;;;;30.75;17.02;;;6.30;46.70;;;;;;4955616;28;20517;-76
2022/03/05 01:01:27;;;;;;;29.65;16.48;;;6.20;46.60;;;;;;4955504;28;20032;-72
2022/03/05 01:03:52;;;;;;;30.63;17.50;;;6.20;46.60;;;;;;4955444;28;20023;-76
2022/03/05 01:06:18;;;;;;;28.42;16.25;;;6.20;46.60;;;;;;4954190;28;20028;-74
2022/03/05 01:08:44;;;;;;;34.20;16.98;;;6.20;46.60;;;;;;4970324;28;20019;-76
2022/03/05 01:11:15;;;;;;;32.47;18.40;;;6.20;46.50;;;;;;4955428;28;20537;-75
2022/03/05 01:13:41;;;;;;;32.13;17.48;;;6.30;46.60;;;;;;4955185;28;20022;-75
2022/03/05 01:16:07;;;;;;;30.77;17.02;;;6.20;46.60;;;;;;4955143;28;20023;-76
2022/03/05 01:18:32;;;;;;;31.23;15.98;;;6.20;46.60;;;;;;4954985;28;20541;-73
2022/03/05 01:20:58;;;;;;;31.10;16.25;;;6.20;46.50;;;;;;4955132;28;20035;-73
2022/03/05 01:23:24;;;;;;;34.20;19.45;;;6.20;46.50;;;;;;4942148;28;20046;-75
2022/03/05 01:25:50;;;;;;;32.90;18.25;;;6.20;46.70;;;;;;4935915;29;20032;-75
2022/03/05 01:28:15;;;;;;;29.70;17.17;;;6.20;46.80;;;;;;4950695;28;20020;-76
2022/03/05 01:30:41;;;;;;;32.40;18.08;;;6.10;46.70;;;;;;4935920;29;20052;-72
2022/03/05 01:33:07;;;;;;;32.83;16.55;;;6.10;46.60;;;;;;4935900;29;20501;-74
2022/03/05 01:35:33;;;;;;;31.42;17.65;;;6.10;46.70;;;;;;4935927;29;20363;-78
2022/03/05 01:37:59;;;;;;;33.95;18.23;;;6.10;46.90;;;;;;4935876;29;20565;-75
2022/03/05 01:40:24;;;;;;;34.35;19.52;;;6.00;46.90;;;;;;4950923;28;20028;-75
2022/03/05 01:42:50;;;;;;;33.17;18.85;;;6.00;47.10;;;;;;4954744;28;20035;-73
2022/03/05 01:45:16;;;;;;;37.15;19.52;;;6.00;47.30;;;;;;4947073;28;20078;-77
2022/03/05 01:47:42;;;;;;;34.78;19.20;;;6.00;47.40;;;;;;4935448;29;20020;-75
2022/03/05 01:50:09;;;;;;;34.78;18.00;;;6.00;47.40;;;;;;4958083;28;20136;-75
2022/03/05 01:52:35;;;;;;;31.38;17.30;;;6.00;47.50;;;;;;4935340;29;20079;-75
2022/03/05 01:55:01;;;;;;;33.97;18.13;;;6.00;47.30;;;;;;4949992;28;20083;-74
2022/03/05 01:57:27;;;;;;;28.52;15.30;;;6.00;47.20;;;;;;4943935;28;20057;-75
2022/03/05 01:59:53;;;;;;;29.23;15.90;;;6.00;47.10;;;;;;4954275;28;20043;-75
2022/03/05 02:02:19;;;;;;;26.50;15.65;;;6.10;47.20;;;;;;4954291;28;20031;-75
2022/03/05 02:04:44;;;;;;;29.02;16.52;;;6.00;47.10;;;;;;4954292;28;20059;-78
2022/03/05 02:07:10;;;;;;;30.13;15.52;;;6.10;47.20;;;;;;4954231;28;20027;-75
2022/03/05 02:09:36;;;;;;;31.25;16.92;;;6.10;47.20;;;;;;4953781;28;20047;-75
2022/03/05 02:12:03;;;;;;;31.25;17.60;;;6.10;47.20;;;;;;4954151;28;20081;-73
2022/03/05 02:14:29;;;;;;;43.25;20.60;;;6.10;47.30;;;;;;4954126;28;20031;-74
2022/03/05 02:16:55;;;;;;;37.05;19.92;;;6.10;47.40;;;;;;4954171;28;20035;-74
2022/03/05 02:19:21;;;;;;;36.97;20.15;;;6.10;47.50;;;;;;4968949;28;20027;-74
2022/03/05 02:21:47;;;;;;;41.00;20.40;;;6.00;47.60;;;;;;4954337;28;20027;-73
2022/03/05 02:24:31;;;;;;;35.72;19.98;;;6.10;47.60;;;;;;4969028;28;20456;-72
2022/03/05 02:27:02;;;;;;;41.35;20.67;;;6.10;47.70;;;;;;4954593;28;20409;-74
2022/03/05 02:29:28;;;;;;;39.95;20.10;;;6.10;47.70;;;;;;4954119;28;20019;-75
2022/03/05 02:31:54;;;;;;;33.33;19.20;;;6.10;47.60;;;;;;4954091;28;20030;-77
2022/03/05 02:34:21;;;;;;;36.50;19.70;;;6.10;47.60;;;;;;4953777;28;20022;-74
2022/03/05 02:36:47;;;;;;;34.15;19.23;;;6.10;47.70;;;;;;4954044;28;20026;-75
2022/03/05 02:39:13;;;;;;;35.30;19.35;;;6.10;47.70;;;;;;4954241;28;20019;-74
2022/03/05 02:41:39;;;;;;;36.78;19.42;;;6.10;47.60;;;;;;4953579;28;20110;-75
2022/03/05 02:44:05;;;;;;;39.03;19.42;;;6.10;47.70;;;;;;4948872;28;20450;-73
2022/03/05 02:46:34;;;;;;;32.63;17.45;;;6.10;47.70;;;;;;4934950;29;20034;-73
2022/03/05 02:49:00;;;;;;;32.42;17.95;;;6.20;47.70;;;;;;4945541;28;20028;-76
2022/03/05 02:51:26;;;;;;;36.42;19.08;;;6.20;47.60;;;;;;4957859;28;20115;-72
2022/03/05 02:53:52;;;;;;;29.75;16.95;;;6.20;47.60;;;;;;4967589;28;20019;-74
2022/03/05 02:56:18;;;;;;;29.42;16.83;;;6.30;47.60;;;;;;4944343;29;20477;-74
2022/03/05 02:58:43;;;;;;;29.08;16.17;;;6.30;47.60;;;;;;4953834;28;20090;-77
2022/03/05 03:01:09;;;;;;;29.98;16.08;;;6.30;47.10;;;;;;4954154;28;20500;-73
2022/03/05 03:03:35;;;;;;;30.35;16.02;;;6.30;47.50;;;;;;4953411;28;20038;-77
2022/03/05 03:06:01;;;;;;;28.20;16.20;;;6.30;47.50;;;;;;4968741;28;20027;-73
2022/03/05 03:08:27;;;;;;;27.85;16.20;;;6.30;47.50;;;;;;4954298;28;20027;-74
2022/03/05 03:10:53;;;;;;;29.40;16.20;;;6.30;47.50;;;;;;4953930;28;20496;-73
2022/03/05 03:13:18;;;;;;;24.08;14.93;;;6.30;47.40;;;;;;4954154;28;20023;-74
2022/03/05 03:15:44;;;;;;;27.45;15.52;;;6.30;47.40;;;;;;4953907;28;20020;-75
2022/03/05 03:18:10;;;;;;;32.22;18.02;;;6.40;47.40;;;;;;4954205;28;20037;-76
2022/03/05 03:20:36;;;;;;;32.28;17.55;;;6.40;47.50;;;;;;4955445;28;20102;-76
2022/03/05 03:23:02;;;;;;;29.35;16.42;;;6.40;47.40;;;;;;4957801;28;20027;-76
2022/03/05 03:25:28;;;;;;;29.25;16.92;;;6.40;47.40;;;;;;4957333;28;20038;-75
2022/03/05 03:27:54;;;;;;;28.60;16.20;;;6.40;47.50;;;;;;4957604;28;20419;-73
2022/03/05 03:30:20;;;;;;;30.30;16.52;;;6.40;47.30;;;;;;4957557;28;20071;-75
2022/03/05 03:32:47;;;;;;;33.03;17.63;;;6.40;47.30;;;;;;4957501;28;20020;-75
2022/03/05 03:35:14;;;;;;;30.58;16.20;;;6.40;47.30;;;;;;4957257;28;20448;-72
2022/03/05 03:37:40;;;;;;;27.88;15.68;;;6.40;47.20;;;;;;4972294;28;20393;-73
2022/03/05 03:40:09;;;;;;;31.73;16.42;;;6.40;47.20;;;;;;4957229;28;20540;-75
2022/03/05 03:42:35;;;;;;;29.63;15.20;;;6.40;47.20;;;;;;4957384;28;20477;-74
2022/03/05 03:45:01;;;;;;;28.27;16.25;;;6.50;47.20;;;;;;4971859;28;20035;-74
2022/03/05 03:47:27;;;;;;;26.88;15.27;;;6.50;47.20;;;;;;4972140;28;20106;-76
2022/03/05 03:49:52;;;;;;;30.27;16.08;;;6.50;47.10;;;;;;4957215;28;20529;-74
2022/03/05 03:52:19;;;;;;;28.00;15.65;;;6.50;47.10;;;;;;4972136;28;20033;-73
2022/03/05 03:54:46;;;;;;;30.48;16.38;;;6.50;47.70;;;;;;4956680;28;20039;-76
2022/03/05 03:57:12;;;;;;;31.23;15.82;;;6.50;47.10;;;;;;4956876;28;20054;-76
2022/03/05 03:59:39;;;;;;;32.63;17.08;;;6.50;47.00;;;;;;4971885;28;20122;-74
2022/03/05 04:02:06;;;;;;;30.63;15.98;;;6.50;47.10;;;;;;4956849;28;20023;-75
2022/03/05 04:04:32;;;;;;;28.25;16.48;;;6.50;47.10;;;;;;4971430;28;20118;-75
2022/03/05 04:09:42;;;;;;;;;;;6.50;47.00;;;;;;4957633;28;20069;-73
2022/03/05 04:12:09;;;;;;;32.80;17.67;;;6.50;46.70;;;;;;4956854;28;19910;-73
2022/03/05 04:14:36;;;;;;;32.95;17.20;;;6.50;46.90;;;;;;4956505;28;20019;-76
2022/03/05 04:17:02;;;;;;;36.83;18.17;;;6.50;47.10;;;;;;4971612;28;20070;-75
2022/03/05 04:19:27;;;;;;;29.40;16.25;;;6.50;47.10;;;;;;4956684;28;20020;-74
2022/03/05 04:21:53;;;;;;;34.60;17.98;;;6.40;47.00;;;;;;4971555;28;20086;-76
2022/03/05 04:24:19;;;;;;;30.23;16.35;;;6.40;47.20;;;;;;4956401;28;20027;-76
2022/03/05 04:26:45;;;;;;;29.77;16.83;;;6.40;47.30;;;;;;4939977;28;20234;-76
2022/03/05 04:29:10;;;;;;;32.58;17.85;;;6.30;47.30;;;;;;4956283;28;20027;-77
2022/03/05 04:31:36;;;;;;;36.88;19.92;;;6.30;47.30;;;;;;4955869;28;20032;-77
2022/03/05 04:34:02;;;;;;;38.00;20.63;;;6.30;47.60;;;;;;4955080;28;20028;-76
2022/03/05 04:36:28;;;;;;;44.00;21.08;;;6.30;47.60;;;;;;4956248;28;20031;-74
2022/03/05 04:38:53;;;;;;;39.67;20.40;;;6.20;47.70;;;;;;4956240;28;20027;-76
2022/03/05 04:41:19;;;;;;;35.88;21.63;;;6.20;47.70;;;;;;4956298;28;20394;-75
2022/03/05 04:43:45;;;;;;;38.67;21.42;;;6.20;47.80;;;;;;4956310;28;20098;-75
2022/03/05 04:46:12;;;;;;;36.33;20.10;;;6.20;47.90;;;;;;4956101;28;20019;-77
2022/03/05 04:48:38;;;;;;;36.92;20.85;;;6.10;47.80;;;;;;4956151;28;20173;-74
2022/03/05 04:51:03;;;;;;;37.50;20.58;;;6.10;47.90;;;;;;4955824;28;20110;-77
2022/03/05 04:53:29;;;;;;;48.50;21.95;;;6.10;48.00;;;;;;4955890;28;20028;-73
2022/03/05 04:55:55;;;;;;;39.83;21.20;;;6.10;48.10;;;;;;4956143;28;20038;-74
2022/03/05 04:58:21;;;;;;;39.00;19.95;;;6.10;48.10;;;;;;4955703;28;20412;-77
2022/03/05 05:00:47;;;;;;;36.70;20.10;;;6.10;48.10;;;;;;4955952;28;20031;-74
2022/03/05 05:03:13;;;;;;;38.08;19.58;;;6.10;48.10;;;;;;4955553;28;20031;-75
2022/03/05 05:05:38;;;;;;;35.83;19.58;;;6.20;48.10;;;;;;4955716;28;20031;-74
2022/03/05 05:08:04;;;;;;;38.05;20.02;;;6.20;48.00;;;;;;4955780;28;20023;-74
2022/03/05 05:10:30;;;;;;;38.33;20.27;;;6.20;48.00;;;;;;4954398;28;20027;-75
2022/03/05 05:12:56;;;;;;;39.40;20.90;;;6.20;48.00;;;;;;4955720;28;20026;-76
2022/03/05 05:15:22;;;;;;;38.45;20.13;;;6.20;48.10;;;;;;4955380;28;20024;-77
2022/03/05 05:17:48;;;;;;;36.03;20.83;;;6.20;48.20;;;;;;4955438;28;20027;-73
2022/03/05 05:20:14;;;;;;;41.40;19.15;;;6.20;48.20;;;;;;4955637;28;20051;-74
2022/03/05 05:22:41;;;;;;;39.45;19.92;;;6.20;48.20;;;;;;4955520;28;20536;-76
2022/03/05 05:25:08;;;;;;;35.22;19.52;;;6.20;48.20;;;;;;4955448;28;20027;-73
2022/03/05 05:27:38;;;;;;;37.90;19.98;;;6.20;48.20;;;;;;4955092;28;20082;-75
2022/03/05 05:30:05;;;;;;;31.85;17.27;;;6.20;48.20;;;;;;4955482;28;20106;-73
2022/03/05 05:32:31;;;;;;;31.55;18.48;;;6.20;48.20;;;;;;4955320;28;20102;-75
2022/03/05 05:34:57;;;;;;;33.13;17.00;;;6.20;48.10;;;;;;4955305;28;20537;-76
2022/03/05 05:37:22;;;;;;;29.23;16.08;;;6.20;48.00;;;;;;4955229;28;20114;-76
2022/03/05 05:39:48;;;;;;;29.13;16.52;;;6.20;48.00;;;;;;4969766;28;20037;-73
2022/03/05 05:42:14;;;;;;;31.30;16.10;;;6.20;47.90;;;;;;4955063;29;20058;-78
2022/03/05 05:44:41;;;;;;;31.35;16.98;;;6.20;47.90;;;;;;4955078;28;20035;-74
2022/03/05 05:47:07;;;;;;;32.47;18.48;;;6.20;47.80;;;;;;4955004;28;20020;-75
2022/03/05 05:49:33;;;;;;;34.40;18.67;;;6.10;47.80;;;;;;4954866;28;20544;-73
2022/03/05 05:51:59;;;;;;;32.58;17.75;;;6.10;47.80;;;;;;4954562;28;20124;-76
2022/03/05 05:54:25;;;;;;;31.83;17.05;;;6.10;47.90;;;;;;4954943;28;20102;-77
2022/03/05 05:56:51;;;;;;;34.30;18.05;;;6.00;47.90;;;;;;4954706;28;20039;-74
2022/03/05 05:59:17;;;;;;;35.25;20.05;;;6.00;47.90;;;;;;4955007;28;20024;-74
2022/03/05 06:01:42;;;;;;;33.63;18.42;;;5.90;47.90;;;;;;4955175;28;20024;-73
2022/03/05 06:04:08;;;;;;;30.27;17.13;;;5.90;48.00;;;;;;4954433;28;20470;-74
2022/03/05 06:06:34;;;;;;;27.35;16.77;;;5.80;48.00;;;;;;4954827;28;20073;-75
2022/03/05 06:09:00;;;;;;;34.78;18.23;;;5.80;48.20;;;;;;4954668;28;20474;-78
2022/03/05 06:11:26;;;;;;;33.45;17.77;;;5.80;48.30;;;;;;4954743;28;20486;-73
2022/03/05 06:13:52;;;;;;;34.10;18.35;;;5.80;48.50;;;;;;4954419;28;20500;-74
2022/03/05 06:16:18;;;;;;;36.33;19.98;;;5.80;48.60;;;;;;4954554;28;20062;-73
2022/03/05 06:18:43;;;;;;;36.10;19.13;;;5.70;48.60;;;;;;4969489;28;20031;-72
2022/03/05 06:21:09;;;;;;;33.58;18.50;;;5.80;48.80;;;;;;4954665;28;20061;-75
2022/03/05 06:23:36;;;;;;;27.80;16.15;;;5.80;48.90;;;;;;4954395;28;20398;-76
2022/03/05 06:26:04;;;;;;;29.98;15.30;;;5.90;48.90;;;;;;4954514;28;20035;-74
2022/03/05 06:28:29;;;;;;;29.60;16.98;;;6.00;49.00;;;;;;4968974;28;20402;-76
2022/03/05 06:30:55;;;;;;;32.45;17.88;;;6.00;49.00;;;;;;4954611;28;20031;-75
2022/03/05 06:33:21;;;;;;;37.53;19.83;;;6.10;49.00;;;;;;4954472;28;20020;-75
2022/03/05 06:35:47;;;;;;;39.83;19.85;;;6.20;48.90;;;;;;4969369;28;20062;-77
2022/03/05 06:38:13;;;;;;;38.88;20.85;;;6.20;48.70;;;;;;4954511;28;20437;-77
2022/03/05 06:40:39;;;;;;;37.42;19.45;;;6.20;48.60;;;;;;4954185;28;20042;-74
2022/03/05 06:43:05;;;;;;;49.97;20.73;;;6.20;48.50;;;;;;4954497;28;20393;-75
2022/03/05 06:45:31;;;;;;;44.28;22.92;;;6.20;48.50;;;;;;4954407;28;20031;-74
2022/03/05 06:47:57;;;;;;;41.38;20.88;;;6.20;48.60;;;;;;4954383;28;20026;-76
2022/03/05 06:50:23;;;;;;;39.05;20.35;;;6.20;48.60;;;;;;4954189;28;20027;-74
2022/03/05 06:52:48;;;;;;;39.47;20.85;;;6.20;48.70;;;;;;4954070;28;20488;-74
2022/03/05 06:55:16;;;;;;;41.78;22.10;;;6.20;48.80;;;;;;4955014;28;20412;-74
2022/03/05 06:57:43;;;;;;;40.25;21.50;;;6.20;48.80;;;;;;4973198;28;20137;-76
2022/03/05 07:00:11;;;;;;;38.63;21.98;;;6.20;48.80;;;;;;4972625;28;20448;-72
2022/03/05 07:02:37;;;;;;;54.13;22.92;;;6.20;48.80;;;;;;4954979;28;20385;-75
2022/03/05 07:05:04;;;;;;;47.90;21.38;;;6.20;48.80;;;;;;4957624;28;20041;-74
2022/03/05 07:07:29;;;;;;;48.75;26.42;;;6.20;48.80;;;;;;4958125;28;20027;-73
2022/03/05 07:09:55;;;;;;;42.95;22.70;;;6.30;48.90;;;;;;4957829;28;20027;-73
2022/03/05 07:12:21;;;;;;;45.83;22.38;;;6.30;48.90;;;;;;4958212;28;20584;-74
2022/03/05 07:14:49;;;;;;;43.58;23.95;;;6.30;48.90;;;;;;4957949;28;20098;-76
2022/03/05 07:17:18;;;;;;;38.78;22.25;;;6.40;49.00;;;;;;4957840;28;20507;-72
2022/03/05 07:19:44;;;;;;;45.67;24.05;;;6.40;49.00;;;;;;4957791;28;20031;-75
2022/03/05 07:22:10;;;;;;;52.25;23.45;;;6.50;49.00;;;;;;4957728;28;20508;-73
2022/03/05 07:24:36;;;;;;;43.17;22.05;;;6.60;49.00;;;;;;4957630;28;20035;-73
2022/03/05 07:27:03;;;;;;;40.42;22.73;;;6.70;49.10;;;;;;4957648;28;20070;-73
2022/03/05 07:29:29;;;;;;;55.28;24.23;;;6.80;49.00;;;;;;4957370;28;20082;-75
2022/03/05 07:31:55;;;;;;;40.85;22.48;;;6.90;48.80;;;;;;4957573;28;20417;-75
2022/03/05 07:34:21;;;;;;;42.97;22.83;;;7.00;48.60;;;;;;4957593;28;20055;-73
2022/03/05 07:36:47;;;;;;;40.17;22.90;;;7.10;48.40;;;;;;4957540;28;20406;-74
2022/03/05 07:39:13;;;;;;;51.95;24.85;;;7.20;48.20;;;;;;4957425;28;20062;-75
2022/03/05 07:41:39;;;;;;;40.40;22.60;;;7.30;48.00;;;;;;4957060;28;20023;-75
2022/03/05 07:44:06;;;;;;;42.30;23.58;;;7.40;47.90;;;;;;4957380;28;20042;-75
2022/03/05 07:46:32;;;;;;;39.38;22.15;;;7.50;47.70;;;;;;4957046;28;20516;-74
2022/03/05 07:48:58;;;;;;;37.10;20.48;;;7.60;47.60;;;;;;4956983;28;20027;-74
2022/03/05 07:51:26;;;;;;;48.58;21.65;;;7.80;47.50;;;;;;4957164;28;20028;-75
2022/03/05 07:53:52;;;;;;;50.28;22.33;;;7.90;47.20;;;;;;4956748;28;20030;-75
2022/03/05 07:56:19;;;;;;;38.85;20.60;;;8.00;46.80;;;;;;4956922;28;20481;-73
2022/03/05 07:58:46;;;;;;;35.72;20.30;;;8.20;46.80;;;;;;4956596;28;20050;-72
2022/03/05 08:01:12;;;;;;;35.92;20.85;;;8.30;46.70;;;;;;4957080;28;20078;-74
2022/03/05 08:03:38;;;;;;;35.20;20.00;;;8.40;46.40;;;;;;4957003;28;20035;-75
2022/03/05 08:06:04;;;;;;;35.95;20.95;;;8.50;46.00;;;;;;4956706;28;20057;-75
2022/03/05 08:08:30;;;;;;;39.72;21.92;;;8.60;45.60;;;;;;4956036;28;20047;-75
2022/03/05 08:10:56;;;;;;;40.33;22.20;;;8.70;45.20;;;;;;4956821;28;20027;-75
2022/03/05 08:13:22;;;;;;;35.35;20.05;;;8.70;45.10;;;;;;4956792;28;20646;-73
2022/03/05 08:15:48;;;;;;;33.25;19.77;;;8.70;45.00;;;;;;4956680;28;20027;-77
2022/03/05 08:18:14;;;;;;;41.45;21.75;;;8.80;45.10;;;;;;4956605;28;20032;-77
2022/03/05 08:20:40;;;;;;;34.58;21.42;;;8.90;45.00;;;;;;4956401;28;20027;-76
2022/03/05 08:23:06;;;;;;;30.88;19.52;;;8.90;45.20;;;;;;4956593;28;20035;-76
2022/03/05 08:25:32;;;;;;;34.75;19.85;;;9.00;45.20;;;;;;4956470;28;20086;-73
2022/03/05 08:27:58;;;;;;;35.53;21.42;;;9.10;45.10;;;;;;4956531;28;20038;-76
2022/03/05 08:30:24;;;;;;;36.85;19.52;;;9.20;44.80;;;;;;4956541;28;20035;-76
2022/03/05 08:32:50;;;;;;;35.33;19.30;;;9.30;44.70;;;;;;4956209;28;20485;-77
2022/03/05 08:35:16;;;;;;;30.35;19.25;;;9.40;44.60;;;;;;4956061;28;20035;-73
2022/03/05 08:37:42;;;;;;;30.58;17.58;;;9.40;44.30;;;;;;4956343;28;20032;-72
2022/03/05 08:40:10;;;;;;;32.45;18.60;;;9.50;44.30;;;;;;4956377;28;20027;-74
2022/03/05 08:42:37;;;;;;;35.08;18.33;;;9.70;44.20;;;;;;4956316;28;20035;-72
2022/03/05 08:45:05;;;;;;;34.00;19.52;;;9.70;44.00;;;;;;4970683;28;20047;-74
2022/03/05 08:47:32;;;;;;;29.38;18.33;;;9.90;44.00;;;;;;4956144;28;20023;-73
2022/03/05 08:49:58;;;;;;;30.55;18.35;;;10.00;43.60;;;;;;4956255;28;20011;-76
2022/03/05 08:52:23;;;;;;;33.80;18.88;;;10.10;43.40;;;;;;4954926;28;20023;-73
2022/03/05 08:54:49;;;;;;;30.80;18.48;;;10.20;43.20;;;;;;4955930;28;20027;-76
2022/03/05 08:57:15;;;;;;;28.13;17.42;;;10.30;42.70;;;;;;4955428;28;20061;-72
2022/03/05 08:59:41;;;;;;;34.22;19.60;;;10.40;42.60;;;;;;4956102;28;20090;-74
2022/03/05 09:02:08;;;;;;;30.13;17.42;;;10.50;42.20;;;;;;4970850;28;20023;-75
2022/03/05 09:04:34;;;;;;;30.05;17.88;;;10.70;42.00;;;;;;4955940;28;20039;-75
2022/03/05 09:07:00;;;;;;;28.52;17.60;;;10.70;41.70;;;;;;4960501;28;20019;-77
2022/03/05 09:09:26;;;;;;;27.00;16.17;;;10.90;41.60;;;;;;4955478;28;20050;-77
2022/03/05 09:11:53;;;;;;;33.22;17.73;;;10.90;41.60;;;;;;4955779;28;20027;-74
2022/03/05 09:14:19;;;;;;;27.00;16.25;;;11.10;41.20;;;;;;4955779;28;20019;-73
2022/03/05 09:16:45;;;;;;;35.88;16.85;;;11.20;41.00;;;;;;4957461;28;20022;-72
2022/03/05 09:19:10;;;;;;;37.10;17.52;;;11.30;40.60;;;;;;4964483;28;20096;-73
2022/03/05 09:21:37;;;;;;;30.40;18.38;;;11.30;40.20;;;;;;4956529;28;20031;-74
2022/03/05 09:24:04;;;;;;;31.70;18.15;;;11.40;40.00;;;;;;4955525;28;20473;-75
2022/03/05 09:26:30;;;;;;;25.77;16.30;;;11.40;39.50;;;;;;4936205;29;20032;-74
2022/03/05 09:28:56;;;;;;;26.70;16.70;;;11.40;39.50;;;;;;4936347;29;20020;-74
2022/03/05 09:31:21;;;;;;;27.20;15.90;;;11.50;39.70;;;;;;4944484;28;20031;-73
2022/03/05 09:33:47;;;;;;;26.77;16.48;;;11.50;39.20;;;;;;4955612;28;20482;-76
2022/03/05 09:36:13;;;;;;;26.50;14.75;;;11.60;39.30;;;;;;4955664;28;20035;-73
2022/03/05 09:38:39;;;;;;;24.90;16.30;;;11.60;38.90;;;;;;4955544;28;20031;-74
2022/03/05 09:41:07;;;;;;;26.75;16.30;;;11.70;38.80;;;;;;4970069;28;20027;-74
2022/03/05 09:43:33;;;;;;;28.67;17.25;;;11.70;38.80;;;;;;4954998;28;20037;-76
2022/03/05 09:46:00;;;;;;;25.48;15.55;;;11.70;38.00;;;;;;4969985;28;20212;-75
2022/03/05 09:48:28;;;;;;;23.77;14.82;;;11.70;38.10;;;;;;4955308;28;20015;-73
2022/03/05 09:50:54;;;;;;;24.50;15.43;;;11.70;38.20;;;;;;4953962;28;20366;-75
2022/03/05 09:53:23;;;;;;;27.70;14.88;;;11.80;37.90;;;;;;4955159;28;20019;-77
2022/03/05 09:55:50;;;;;;;27.60;14.02;;;11.80;37.80;;;;;;4954541;28;20027;-75
2022/03/05 09:58:16;;;;;;;20.58;14.00;;;11.80;37.40;;;;;;4969630;28;20047;-72
2022/03/05 10:00:43;;;;;;;23.80;14.57;;;11.80;37.50;;;;;;4954969;28;20034;-75
2022/03/05 10:03:13;;;;;;;25.05;14.77;;;11.80;36.70;;;;;;4954806;28;20111;-74
2022/03/05 10:05:38;;;;;;;23.83;14.38;;;11.80;36.90;;;;;;4954782;28;20023;-75
2022/03/05 10:08:15;;;;;;;23.23;14.35;;;11.80;37.10;;;;;;4954246;28;20034;-75
2022/03/05 10:10:49;;;;;;;27.45;14.30;;;11.80;36.90;;;;;;4954845;28;20030;-76
2022/03/05 10:13:25;;;;;;;27.67;14.93;;;11.70;36.80;;;;;;4954651;28;20077;-76
2022/03/05 10:15:54;;;;;;;30.38;17.42;;;11.70;36.30;;;;;;4954671;28;20062;-76
2022/03/05 10:18:37;;;;;;;23.98;14.80;;;11.70;36.60;;;;;;4954751;28;20035;-75
2022/03/05 10:21:08;;;;;;;32.03;16.08;;;11.60;37.20;;;;;;4953430;28;20027;-74
2022/03/05 10:23:37;;;;;;;30.10;15.95;;;11.60;37.20;;;;;;4944634;28;20123;-76
2022/03/05 10:26:07;;;;;;;31.67;17.25;;;11.70;37.30;;;;;;4954532;28;20027;-72
2022/03/05 10:28:34;;;;;;;31.27;16.75;;;11.80;37.30;;;;;;4954443;28;20039;-74
2022/03/05 10:31:12;;;;;;;29.80;16.75;;;11.80;37.20;;;;;;4953688;28;20019;-78
2022/03/05 10:33:46;;;;;;;27.77;17.23;;;11.80;37.00;;;;;;4954515;28;20485;-73
2022/03/05 10:36:19;;;;;;;28.38;16.73;;;11.80;37.00;;;;;;4954616;28;20400;-76
2022/03/05 10:38:49;;;;;;;26.50;17.25;;;11.90;37.00;;;;;;4953988;28;20424;-77
2022/03/05 10:41:19;;;;;;;45.90;17.48;;;11.90;36.90;;;;;;4950773;28;20023;-74
2022/03/05 10:44:02;;;;;;;31.48;17.10;;;11.90;37.10;;;;;;4953675;28;20035;-74
2022/03/05 10:46:41;;;;;;;27.33;16.63;;;12.00;36.70;;;;;;4964246;28;20380;-74
2022/03/05 10:49:09;;;;;;;25.08;15.18;;;12.00;36.90;;;;;;4973641;28;20023;-73
2022/03/05 10:51:37;;;;;;;27.08;15.88;;;12.00;37.10;;;;;;4950008;28;20028;-77
2022/03/05 10:54:03;;;;;;;22.40;13.95;;;12.00;37.30;;;;;;4935192;29;20020;-77
2022/03/05 10:56:33;;;;;;;33.22;16.60;;;12.10;37.00;;;;;;4935180;29;20032;-76
2022/03/05 10:59:00;;;;;;;25.30;15.23;;;12.10;36.40;;;;;;4934988;29;20050;-77
2022/03/05 11:01:26;;;;;;;45.53;26.25;;;12.10;36.50;;;;;;4936118;29;20039;-75
2022/03/05 11:03:53;;;;;;;31.10;17.88;;;12.10;36.40;;;;;;4954298;28;20363;-75
2022/03/05 11:06:20;;;;;;;33.05;19.48;;;12.00;36.40;;;;;;4968994;28;20481;-75
2022/03/05 11:08:48;;;;;;;29.10;17.58;;;11.90;36.50;;;;;;4968560;28;20036;-75
2022/03/05 11:11:18;;;;;;;30.77;16.95;;;11.90;36.50;;;;;;4946829;28;20549;-75
2022/03/05 11:13:45;;;;;;;30.48;18.35;;;11.80;36.60;;;;;;4935022;29;20422;-75
2022/03/05 11:16:12;;;;;;;30.52;18.67;;;11.70;36.70;;;;;;4949284;28;20134;-77
2022/03/05 11:18:39;;;;;;;32.65;19.30;;;11.70;37.00;;;;;;4965958;28;20037;-75
2022/03/05 11:21:05;;;;;;;29.70;17.20;;;11.60;37.10;;;;;;4969006;28;20058;-74
2022/03/05 11:23:33;;;;;;;28.23;17.00;;;11.50;37.10;;;;;;4962115;28;20031;-76
2022/03/05 11:26:00;;;;;;;30.75;18.92;;;11.40;36.90;;;;;;4973255;28;20023;-74
2022/03/05 11:28:36;;;;;;;32.13;19.58;;;11.40;37.10;;;;;;4972559;28;20020;-75
2022/03/05 11:31:22;;;;;;;27.63;16.42;;;11.30;37.10;;;;;;4943252;28;20529;-78
2022/03/05 11:33:49;;;;;;;26.42;17.00;;;11.20;37.30;;;;;;4953872;28;20023;-75
2022/03/05 11:36:27;;;;;;;30.05;14.63;;;11.10;37.30;;;;;;4953357;28;20019;-76
2022/03/05 11:39:17;;;;;;;26.33;14.63;;;11.10;37.60;;;;;;4934677;29;20040;-77
2022/03/05 11:41:55;;;;;;;25.50;15.02;;;11.00;37.40;;;;;;4936298;29;20027;-76
2022/03/05 11:44:23;;;;;;;26.75;15.85;;;11.00;37.50;;;;;;4952843;28;20030;-75
2022/03/05 11:47:10;;;;;;;21.92;13.95;;;11.00;37.70;;;;;;4956618;28;20449;-77
2022/03/05 11:49:58;;;;;;;23.55;15.00;;;11.00;37.80;;;;;;4957128;28;20038;-72
2022/03/05 11:52:39;;;;;;;24.92;13.98;;;11.00;38.00;;;;;;4957181;28;20354;-75
2022/03/05 11:55:14;;;;;;;25.42;14.50;;;11.00;37.90;;;;;;4938330;29;20034;-76
2022/03/05 11:57:44;;;;;;;21.42;13.80;;;11.00;37.80;;;;;;4937946;29;20055;-74
2022/03/05 12:00:10;;;;;;;24.98;14.40;;;11.10;37.80;;;;;;4951349;28;20035;-76
2022/03/05 12:02:38;;;;;;;25.77;14.38;;;11.20;37.90;;;;;;4955681;28;20042;-77
2022/03/05 12:05:05;;;;;;;23.27;13.27;;;11.30;38.00;;;;;;4957073;28;20473;-74
2022/03/05 12:07:40;;;;;;;19.20;12.32;;;11.30;37.90;;;;;;4956916;28;20027;-75
2022/03/05 12:10:15;;;;;;;21.50;12.75;;;11.40;37.80;;;;;;4957004;28;20026;-75
2022/03/05 12:13:10;;;;;;;;;;;11.50;37.40;;;;;;4957172;28;20024;-77
2022/03/05 12:15:42;;;;;;;20.92;12.82;;;11.60;38.10;;;;;;4958590;28;19914;-75
2022/03/05 12:18:12;;;;;;;22.52;13.95;;;11.70;37.50;;;;;;4954734;28;20110;-75
2022/03/05 12:20:40;;;;;;;22.65;14.25;;;11.80;37.30;;;;;;4954606;28;20039;-75
2022/03/05 12:23:11;;;;;;;26.60;15.07;;;11.80;37.20;;;;;;4954883;28;20073;-74
2022/03/05 12:25:44;;;;;;;22.63;14.50;;;11.90;36.90;;;;;;4959715;28;20071;-76
2022/03/05 12:28:14;;;;;;;25.38;15.57;;;11.90;36.90;;;;;;4973713;28;20067;-76
2022/03/05 12:30:40;;;;;;;27.48;14.95;;;11.90;36.90;;;;;;4973479;28;20125;-74
2022/03/05 12:33:08;;;;;;;27.08;15.52;;;11.90;36.90;;;;;;4958852;28;20036;-74
2022/03/05 12:35:36;;;;;;;29.73;15.38;;;11.90;36.70;;;;;;4944866;28;20015;-76
2022/03/05 12:38:03;;;;;;;26.90;15.20;;;11.80;36.50;;;;;;4973433;28;20103;-74